Time;durP1;ratioP1;P1;durP2;ratioP2;P2;SDS_P1;SDS_P2;PMS_P1;PMS_P2;Temp;Humidity;BMP_temperature;BMP_pressure;BME280_temperature;BME280_humidity;BME280_pressure;Samples;Min_cycle;Max_cycle;Signal;HPM_P1;HPM_P2
2022/06/25 00:00:53;;;;;;;0.53;0.20;;;19.70;90.00;20.20;96268.00;;;;5033027;28;20193;-85
2022/06/25 00:03:22;;;;;;;0.33;0.30;;;19.70;90.00;20.20;96260.00;;;;5033116;28;20177;-84
2022/06/25 00:05:50;;;;;;;0.30;0.30;;;19.70;90.00;20.20;96269.00;;;;5032603;28;20220;-85
2022/06/25 00:08:21;;;;;;;0.67;0.40;;;19.70;90.00;20.20;96269.00;;;;5032850;28;20229;-85
2022/06/25 00:10:52;;;;;;;1.30;0.37;;;19.70;90.00;20.20;96269.00;;;;5032399;28;20547;-85
2022/06/25 00:13:18;;;;;;;0.63;0.40;;;19.70;90.00;20.20;96264.00;;;;5033085;28;20197;-85
2022/06/25 00:15:49;;;;;;;0.40;0.30;;;19.70;90.00;20.20;96264.00;;;;5018619;28;20222;-85
2022/06/25 00:18:17;;;;;;;0.43;0.40;;;19.70;90.00;20.20;96271.00;;;;5012779;28;20256;-85
2022/06/25 00:20:45;;;;;;;0.40;0.40;;;19.70;90.10;20.20;96259.00;;;;5012434;28;20198;-85
2022/06/25 00:23:17;;;;;;;0.40;0.40;;;19.70;90.10;20.20;96274.00;;;;5018586;28;20244;-85
2022/06/25 00:25:44;;;;;;;1.27;0.40;;;19.70;90.10;20.20;96275.00;;;;5026425;28;20210;-85
2022/06/25 00:28:11;;;;;;;0.30;0.30;;;19.60;90.10;20.20;96275.00;;;;5013013;28;20226;-85
2022/06/25 00:30:41;;;;;;;0.60;0.33;;;19.70;90.10;20.20;96272.00;;;;5031944;28;20201;-85
2022/06/25 00:33:11;;;;;;;1.20;0.40;;;19.70;90.10;20.20;96267.00;;;;5021581;28;20824;-85
2022/06/25 00:35:39;;;;;;;0.33;0.20;;;19.60;90.10;20.20;96273.00;;;;5012584;28;20235;-85
2022/06/25 00:38:06;;;;;;;1.17;0.40;;;19.70;90.10;20.20;96267.00;;;;5022986;28;20229;-85
2022/06/25 00:40:37;;;;;;;0.50;0.47;;;19.60;90.10;20.20;96271.00;;;;5032161;28;20217;-85
2022/06/25 00:43:04;;;;;;;0.50;0.40;;;19.70;90.20;20.20;96275.00;;;;5022627;28;20190;-85
2022/06/25 00:45:32;;;;;;;0.30;0.30;;;19.60;90.10;20.20;96278.00;;;;5013080;28;20598;-85
2022/06/25 00:47:59;;;;;;;0.47;0.40;;;19.70;90.20;20.20;96273.00;;;;5031793;28;20223;-84
2022/06/25 00:50:27;;;;;;;0.50;0.50;;;19.60;90.10;20.20;96274.00;;;;5032189;28;20620;-84
2022/06/25 00:52:57;;;;;;;0.40;0.40;;;19.70;90.20;20.20;96270.00;;;;5031784;28;20193;-85
2022/06/25 00:55:31;;;;;;;0.40;0.40;;;19.70;90.20;20.20;96279.00;;;;5031937;28;20292;-85
2022/06/25 00:58:02;;;;;;;0.30;0.30;;;19.70;90.30;20.30;96274.00;;;;5014561;28;20652;-84
2022/06/25 01:00:30;;;;;;;1.10;0.50;;;19.70;90.30;20.30;96274.00;;;;5018143;28;20208;-84
2022/06/25 01:02:57;;;;;;;0.30;0.30;;;19.70;90.20;20.30;96273.00;;;;5012514;28;20202;-85
2022/06/25 01:05:26;;;;;;;0.57;0.57;;;19.70;90.20;20.30;96271.00;;;;5014738;28;20616;-85
2022/06/25 01:07:53;;;;;;;0.70;0.30;;;19.70;90.20;20.30;96272.00;;;;5032006;28;20197;-85
2022/06/25 01:10:24;;;;;;;0.83;0.40;;;19.70;90.20;20.30;96275.00;;;;5026441;28;20217;-86
2022/06/25 01:12:51;;;;;;;0.40;0.40;;;19.70;90.20;20.30;96272.00;;;;5025102;28;20678;-85
2022/06/25 01:15:21;;;;;;;0.53;0.40;;;19.70;90.20;20.30;96273.00;;;;5023996;28;20222;-85
2022/06/25 01:17:51;;;;;;;0.40;0.40;;;19.70;90.20;20.30;96274.00;;;;5028190;28;20302;-85
2022/06/25 01:20:20;;;;;;;0.37;0.37;;;19.70;90.50;20.30;96276.00;;;;5031651;28;20638;-85
2022/06/25 01:22:49;;;;;;;0.40;0.40;;;19.70;90.10;20.30;96274.00;;;;5029533;28;20852;-85
2022/06/25 01:25:17;;;;;;;0.40;0.40;;;19.70;90.10;20.30;96280.00;;;;5031037;28;20198;-85
2022/06/25 01:27:45;;;;;;;0.40;0.40;;;19.70;90.20;20.30;96276.00;;;;5018489;28;20431;-85
2022/06/25 01:30:15;;;;;;;0.90;0.50;;;19.70;90.20;20.30;96280.00;;;;5012204;28;20309;-85
2022/06/25 01:32:43;;;;;;;0.67;0.40;;;19.70;90.30;20.30;96272.00;;;;5012308;28;20198;-85
2022/06/25 01:35:11;;;;;;;0.80;0.50;;;19.70;90.20;20.30;96271.00;;;;5011508;28;20252;-85
2022/06/25 01:37:39;;;;;;;0.60;0.60;;;19.70;90.20;20.30;96273.00;;;;5012178;28;20276;-86
2022/06/25 01:40:09;;;;;;;1.20;0.40;;;19.70;90.20;20.30;96264.00;;;;5013948;28;20222;-86
2022/06/25 01:45:23;;;;;;;0.40;0.40;;;19.70;90.30;20.30;96267.00;;;;5022193;28;20204;-85
2022/06/25 01:47:51;;;;;;;1.03;0.60;;;19.70;90.30;20.30;96270.00;;;;5031456;28;20257;-85
2022/06/25 01:50:21;;;;;;;0.40;0.40;;;19.70;90.30;20.30;96267.00;;;;5022134;28;20633;-85
2022/06/25 01:52:48;;;;;;;0.47;0.47;;;19.70;90.20;20.30;96270.00;;;;5011706;28;20198;-85
2022/06/25 01:55:18;;;;;;;0.43;0.43;;;19.70;90.20;20.30;96263.00;;;;5014581;28;20240;-85
2022/06/25 01:57:46;;;;;;;0.40;0.40;;;19.70;90.20;20.30;96263.00;;;;5031321;28;20252;-85
2022/06/25 02:00:20;;;;;;;0.47;0.47;;;19.70;90.20;20.30;96260.00;;;;5031208;28;20223;-85
2022/06/25 02:02:48;;;;;;;0.40;0.40;;;19.70;90.20;20.30;96265.00;;;;5026978;28;20284;-85
2022/06/25 02:05:18;;;;;;;2.37;0.40;;;19.70;90.20;20.30;96260.00;;;;5031141;28;20208;-85
2022/06/25 02:07:48;;;;;;;0.30;0.30;;;19.70;90.30;20.30;96267.00;;;;5016861;28;20436;-85
2022/06/25 02:10:17;;;;;;;0.73;0.30;;;19.70;90.30;20.30;96266.00;;;;5011698;28;20200;-85
2022/06/25 02:12:44;;;;;;;1.60;0.30;;;19.70;90.30;20.30;96268.00;;;;5025556;28;20205;-85
2022/06/25 02:15:11;;;;;;;0.27;0.27;;;19.80;90.30;20.40;96271.00;;;;5030540;28;20199;-85
2022/06/25 02:17:39;;;;;;;0.50;0.50;;;19.80;90.40;20.40;96273.00;;;;5030623;28;20829;-85
2022/06/25 02:20:10;;;;;;;0.60;0.50;;;19.80;90.40;20.40;96274.00;;;;5030634;28;20220;-85
2022/06/25 02:22:37;;;;;;;0.97;0.30;;;19.80;90.40;20.40;96282.00;;;;5011253;28;20542;-85
2022/06/25 02:25:06;;;;;;;0.87;0.40;;;19.80;90.40;20.40;96283.00;;;;5011561;28;20257;-85
2022/06/25 02:27:36;;;;;;;0.47;0.40;;;19.80;90.40;20.40;96275.00;;;;5019900;28;20224;-85
2022/06/25 02:30:04;;;;;;;0.73;0.40;;;19.80;90.40;20.40;96287.00;;;;5031369;28;20223;-85
2022/06/25 02:32:32;;;;;;;0.40;0.40;;;19.80;90.40;20.50;96286.00;;;;5031345;28;20225;-85
2022/06/25 02:35:01;;;;;;;0.40;0.40;;;19.80;90.40;20.50;96294.00;;;;5030393;28;20236;-85
2022/06/25 02:37:31;;;;;;;0.30;0.30;;;19.80;90.40;20.50;96289.00;;;;5031273;28;20256;-85
2022/06/25 02:39:58;;;;;;;1.43;0.60;;;19.80;90.50;20.50;96291.00;;;;5030815;28;20660;-86
2022/06/25 02:42:25;;;;;;;1.47;0.50;;;19.90;90.40;20.50;96291.00;;;;5031223;28;20225;-85
2022/06/25 02:44:54;;;;;;;0.40;0.30;;;19.80;90.30;20.50;96298.00;;;;5023155;28;20221;-85
2022/06/25 02:47:21;;;;;;;0.67;0.30;;;19.80;90.30;20.50;96294.00;;;;5011236;28;20206;-85
2022/06/25 02:49:51;;;;;;;0.77;0.60;;;19.80;90.40;20.50;96296.00;;;;5017798;28;20206;-85
2022/06/25 02:52:18;;;;;;;0.90;0.50;;;19.90;90.40;20.50;96290.00;;;;5031074;28;20668;-85
2022/06/25 02:54:46;;;;;;;0.40;0.40;;;19.90;90.40;20.60;96294.00;;;;5014695;28;20269;-85
2022/06/25 03:00:00;;;;;;;0.80;0.40;;;19.90;90.40;20.60;96303.00;;;;5016679;28;20232;-85
2022/06/25 03:02:30;;;;;;;0.30;0.30;;;19.90;90.30;20.60;96299.00;;;;5021361;28;20288;-85
2022/06/25 03:04:57;;;;;;;0.50;0.50;;;19.90;90.30;20.50;96298.00;;;;5033886;28;20526;-85
2022/06/25 03:07:27;;;;;;;0.30;0.30;;;19.90;90.30;20.60;96300.00;;;;5033237;28;20255;-84
2022/06/25 03:09:54;;;;;;;1.10;0.67;;;19.90;90.40;20.50;96298.00;;;;5034274;28;20232;-85
2022/06/25 03:12:22;;;;;;;0.57;0.57;;;19.90;90.30;20.60;96303.00;;;;5033267;28;20290;-85
2022/06/25 03:14:49;;;;;;;0.40;0.40;;;19.90;90.40;20.60;96309.00;;;;5034289;28;20198;-85
2022/06/25 03:17:18;;;;;;;0.50;0.50;;;19.90;90.40;20.60;96309.00;;;;5033911;28;20290;-85
2022/06/25 03:19:45;;;;;;;0.43;0.43;;;19.90;90.40;20.60;96305.00;;;;5033872;28;20658;-85
2022/06/25 03:22:12;;;;;;;0.40;0.40;;;19.90;90.40;20.60;96305.00;;;;5034045;28;20193;-86
2022/06/25 03:24:40;;;;;;;0.67;0.53;;;19.90;90.40;20.60;96300.00;;;;5031722;28;20201;-85
2022/06/25 03:27:07;;;;;;;0.77;0.50;;;19.90;90.40;20.60;96307.00;;;;5022011;28;20551;-85
2022/06/25 03:29:34;;;;;;;0.67;0.50;;;19.90;90.30;20.60;96304.00;;;;5031190;28;20211;-85
2022/06/25 03:32:02;;;;;;;0.60;0.60;;;20.00;90.40;20.60;96302.00;;;;5033559;28;20255;-85
2022/06/25 03:34:30;;;;;;;1.57;0.50;;;19.90;90.40;20.60;96299.00;;;;5032174;28;20296;-85
2022/06/25 03:36:58;;;;;;;1.13;0.60;;;20.00;90.40;20.60;96304.00;;;;5033930;28;20197;-85
2022/06/25 03:39:25;;;;;;;0.73;0.60;;;20.00;90.40;20.60;96306.00;;;;5032907;28;20578;-86
2022/06/25 03:41:52;;;;;;;1.37;0.50;;;20.00;90.50;20.60;96315.00;;;;5015067;28;20277;-85
2022/06/25 03:44:20;;;;;;;0.50;0.50;;;20.00;90.40;20.60;96310.00;;;;5021835;28;20194;-85
2022/06/25 03:46:48;;;;;;;0.40;0.40;;;20.00;90.50;20.60;96313.00;;;;5034267;28;20248;-85
2022/06/25 03:49:15;;;;;;;0.67;0.47;;;20.00;90.50;20.70;96320.00;;;;5039622;28;20214;-84
2022/06/25 03:51:46;;;;;;;2.47;0.90;;;20.00;90.50;20.70;96321.00;;;;5029116;28;20205;-84
2022/06/25 03:54:15;;;;;;;0.60;0.60;;;20.00;90.40;20.70;96315.00;;;;5036353;28;20209;-84
2022/06/25 03:56:42;;;;;;;1.03;0.60;;;20.00;90.40;20.70;96305.00;;;;5048593;28;20215;-84
2022/06/25 03:59:09;;;;;;;0.50;0.50;;;20.00;90.40;20.70;96322.00;;;;5031673;28;20238;-84
2022/06/25 04:01:37;;;;;;;0.40;0.40;;;20.00;90.40;20.70;96315.00;;;;5037611;28;20213;-84
2022/06/25 04:04:09;;;;;;;2.57;0.50;;;20.00;90.40;20.70;96323.00;;;;5041948;28;20243;-84
2022/06/25 04:06:37;;;;;;;0.50;0.50;;;20.00;90.40;20.70;96323.00;;;;5045876;28;20197;-84
2022/06/25 04:09:08;;;;;;;0.83;0.50;;;20.00;90.40;20.70;96330.00;;;;5032190;28;20221;-84
2022/06/25 04:11:36;;;;;;;0.83;0.60;;;20.00;90.30;20.70;96319.00;;;;5027950;28;20217;-84
2022/06/25 04:14:09;;;;;;;1.23;0.50;;;20.00;90.40;20.80;96334.00;;;;5026763;28;20208;-84
2022/06/25 04:16:36;;;;;;;0.63;0.63;;;20.10;90.40;20.80;96331.00;;;;5031777;28;20198;-84
2022/06/25 04:19:03;;;;;;;0.63;0.57;;;20.10;90.50;20.80;96336.00;;;;5024396;28;20605;-84
2022/06/25 04:21:32;;;;;;;0.97;0.60;;;20.10;90.50;20.80;96335.00;;;;5032866;28;20204;-84
2022/06/25 04:24:00;;;;;;;2.13;0.70;;;20.10;90.50;20.80;96344.00;;;;5045471;28;20258;-84
2022/06/25 04:26:28;;;;;;;1.13;0.67;;;20.10;90.50;20.90;96331.00;;;;5032704;28;20205;-84
2022/06/25 04:29:04;;;;;;;0.80;0.57;;;20.10;90.50;20.90;96342.00;;;;5026587;28;20261;-84
2022/06/25 04:31:31;;;;;;;0.93;0.40;;;20.20;90.60;20.90;96347.00;;;;5037272;28;20217;-84
2022/06/25 04:33:59;;;;;;;0.40;0.40;;;20.20;90.70;21.00;96343.00;;;;5045893;28;20209;-84
2022/06/25 04:36:29;;;;;;;0.83;0.60;;;20.20;90.70;21.00;96347.00;;;;5033889;28;20233;-84
2022/06/25 04:38:57;;;;;;;0.40;0.40;;;20.20;90.70;21.00;96334.00;;;;5026735;28;20229;-84
2022/06/25 04:41:30;;;;;;;1.37;0.57;;;20.20;90.70;21.00;96347.00;;;;5044660;28;20190;-84
2022/06/25 04:44:01;;;;;;;0.73;0.50;;;20.30;90.70;21.10;96352.00;;;;5046326;28;20205;-84
2022/06/25 04:46:30;;;;;;;1.90;0.77;;;20.30;90.60;21.10;96345.00;;;;5026684;28;20204;-84
2022/06/25 04:48:58;;;;;;;0.83;0.40;;;20.30;90.50;21.10;96352.00;;;;5025785;28;20285;-84
2022/06/25 04:51:28;;;;;;;0.50;0.50;;;20.30;90.50;21.10;96345.00;;;;5044664;28;20208;-84
2022/06/25 04:53:56;;;;;;;0.50;0.50;;;20.30;90.50;21.10;96353.00;;;;5040488;28;20194;-84
2022/06/25 04:56:25;;;;;;;1.27;0.50;;;20.30;90.60;21.10;96353.00;;;;5037216;28;20212;-84
2022/06/25 04:58:54;;;;;;;0.30;0.30;;;20.40;90.60;21.10;96358.00;;;;5056150;22;20297;-84
2022/06/25 05:01:22;;;;;;;0.60;0.53;;;20.40;90.60;21.10;96361.00;;;;5052428;28;20250;-84
2022/06/25 05:03:49;;;;;;;1.57;0.60;;;20.40;90.60;21.20;96352.00;;;;5059601;28;20630;-84
2022/06/25 05:06:17;;;;;;;1.13;0.50;;;20.40;90.70;21.20;96359.00;;;;5035961;28;20238;-84
2022/06/25 05:08:44;;;;;;;1.10;0.40;;;20.40;90.70;21.20;96362.00;;;;5051773;28;20290;-85
2022/06/25 05:11:11;;;;;;;0.80;0.40;;;20.50;90.70;21.20;96365.00;;;;5052862;28;20245;-84
2022/06/25 05:13:38;;;;;;;1.37;0.57;;;20.50;90.70;21.30;96366.00;;;;5053572;28;20221;-85
2022/06/25 05:16:07;;;;;;;0.63;0.40;;;20.50;90.70;21.30;96358.00;;;;5036309;28;20263;-85
2022/06/25 05:18:34;;;;;;;0.30;0.30;;;20.50;90.80;21.30;96369.00;;;;5033684;28;20257;-85
2022/06/25 05:21:02;;;;;;;1.10;0.50;;;20.50;90.80;21.40;96369.00;;;;5032781;28;20249;-84
2022/06/25 05:23:29;;;;;;;0.73;0.60;;;20.60;90.80;21.40;96372.00;;;;5033966;28;20213;-84
2022/06/25 05:25:57;;;;;;;1.27;0.50;;;20.60;90.70;21.40;96375.00;;;;5047169;28;20255;-80
2022/06/25 05:28:24;;;;;;;0.40;0.30;;;20.70;90.80;21.50;96374.00;;;;5036351;28;20240;-82
2022/06/25 05:30:51;;;;;;;0.50;0.50;;;20.70;90.80;21.50;96369.00;;;;5036393;28;20303;-80
2022/06/25 05:33:20;;;;;;;0.43;0.43;;;20.70;90.80;21.60;96380.00;;;;5035413;28;20260;-81
2022/06/25 05:35:47;;;;;;;2.27;0.50;;;20.70;90.70;21.70;96385.00;;;;5035159;28;20228;-80
2022/06/25 05:38:14;;;;;;;0.87;0.50;;;20.70;90.70;21.70;96382.00;;;;5034634;28;20221;-82
2022/06/25 05:40:42;;;;;;;0.97;0.70;;;20.80;90.70;21.70;96377.00;;;;5033784;28;20239;-82
2022/06/25 05:43:09;;;;;;;0.47;0.47;;;20.80;90.70;21.80;96385.00;;;;5034004;28;20634;-80
2022/06/25 05:45:36;;;;;;;0.57;0.50;;;20.80;90.70;21.80;96384.00;;;;5034889;28;20239;-83
2022/06/25 05:48:04;;;;;;;0.60;0.50;;;20.90;90.60;21.80;96388.00;;;;5054157;28;20245;-80
2022/06/25 05:50:33;;;;;;;1.43;0.50;;;20.90;90.50;21.90;96385.00;;;;5043095;28;20240;-80
2022/06/25 05:53:00;;;;;;;0.60;0.50;;;20.90;90.40;21.90;96395.00;;;;5033951;28;20252;-80
2022/06/25 05:55:27;;;;;;;0.40;0.40;;;20.90;90.30;21.90;96395.00;;;;5039557;28;20689;-82
2022/06/25 05:57:55;;;;;;;0.80;0.43;;;20.90;90.30;21.80;96387.00;;;;5033603;28;20231;-80
2022/06/25 06:00:22;;;;;;;0.70;0.50;;;20.90;90.10;21.80;96394.00;;;;5043266;28;20204;-80
2022/06/25 06:02:50;;;;;;;0.97;0.60;;;20.90;90.10;21.80;96394.00;;;;5053780;28;20354;-82
2022/06/25 06:05:17;;;;;;;0.57;0.57;;;20.90;90.10;21.70;96387.00;;;;5053269;28;20256;-81
2022/06/25 06:07:46;;;;;;;0.43;0.43;;;20.90;90.00;21.70;96389.00;;;;5053789;28;20239;-81
2022/06/25 06:10:14;;;;;;;1.07;0.40;;;20.90;90.00;21.70;96394.00;;;;5053426;28;20673;-80
2022/06/25 06:12:41;;;;;;;1.20;0.73;;;20.90;90.10;21.70;96393.00;;;;5053143;28;20245;-80
2022/06/25 06:15:10;;;;;;;0.50;0.50;;;20.90;90.10;21.60;96391.00;;;;5052507;28;20235;-79
2022/06/25 06:17:37;;;;;;;1.20;0.67;;;20.90;90.10;21.60;96402.00;;;;5052581;28;20200;-80
2022/06/25 06:20:06;;;;;;;1.17;0.57;;;20.80;90.00;21.60;96408.00;;;;5052462;28;20693;-80
2022/06/25 06:22:33;;;;;;;0.80;0.80;;;20.80;90.00;21.50;96404.00;;;;5052475;28;20290;-80
2022/06/25 06:25:03;;;;;;;1.07;0.63;;;20.80;90.00;21.50;96404.00;;;;5052045;28;20255;-80
2022/06/25 06:27:30;;;;;;;2.40;0.70;;;20.80;90.10;21.60;96415.00;;;;5052323;28;20291;-80
2022/06/25 06:29:57;;;;;;;1.33;0.60;;;20.80;90.30;21.70;96414.00;;;;5048218;28;20212;-80
2022/06/25 06:32:24;;;;;;;0.53;0.50;;;20.80;90.50;21.70;96412.00;;;;5056750;28;20248;-81
2022/06/25 06:34:52;;;;;;;1.63;0.93;;;20.90;90.70;21.80;96410.00;;;;5057301;28;20204;-82
2022/06/25 06:37:20;;;;;;;1.97;0.70;;;20.90;90.90;21.90;96417.00;;;;5056532;28;20231;-83
2022/06/25 06:39:48;;;;;;;0.60;0.60;;;21.00;91.00;22.00;96411.00;;;;5055006;28;20654;-80
2022/06/25 06:42:16;;;;;;;0.87;0.70;;;21.00;91.00;22.10;96416.00;;;;5055232;28;20230;-81
2022/06/25 06:44:44;;;;;;;1.17;0.73;;;21.10;91.10;22.20;96416.00;;;;5056482;28;20275;-80
2022/06/25 06:47:11;;;;;;;0.57;0.57;;;21.20;91.30;22.30;96417.00;;;;5048780;28;20225;-83
2022/06/25 06:49:38;;;;;;;0.93;0.60;;;21.30;91.40;22.40;96415.00;;;;5033997;28;20564;-83
2022/06/25 06:52:06;;;;;;;1.37;0.60;;;21.40;91.50;22.60;96417.00;;;;5039761;28;20232;-83
2022/06/25 06:54:33;;;;;;;1.03;0.70;;;21.50;91.60;22.70;96421.00;;;;5054718;28;20220;-83
2022/06/25 06:57:00;;;;;;;0.50;0.50;;;21.60;91.60;22.80;96423.00;;;;5049669;28;20281;-83
2022/06/25 06:59:29;;;;;;;0.60;0.60;;;21.70;91.60;22.90;96413.00;;;;5034666;28;20714;-83
2022/06/25 07:01:58;;;;;;;0.70;0.60;;;21.80;91.60;23.10;96424.00;;;;5038017;28;20252;-82
2022/06/25 07:04:25;;;;;;;1.10;0.70;;;21.90;91.70;23.30;96419.00;;;;5034657;28;20213;-83
2022/06/25 07:06:52;;;;;;;0.83;0.70;;;22.00;91.80;23.40;96417.00;;;;5043242;28;20629;-84
2022/06/25 07:09:19;;;;;;;0.63;0.63;;;22.10;91.80;23.60;96425.00;;;;5054523;28;20271;-83
2022/06/25 07:11:46;;;;;;;0.47;0.47;;;22.30;91.80;23.80;96428.00;;;;5046018;28;20245;-84
2022/06/25 07:14:13;;;;;;;1.80;0.70;;;22.40;91.70;23.90;96426.00;;;;5034413;28;20260;-83
2022/06/25 07:16:42;;;;;;;0.70;0.70;;;22.50;91.50;24.00;96434.00;;;;5046368;28;20228;-82
2022/06/25 07:19:10;;;;;;;0.80;0.70;;;22.70;91.20;24.10;96427.00;;;;5054448;28;20229;-83
2022/06/25 07:21:37;;;;;;;0.67;0.57;;;22.80;91.20;24.20;96431.00;;;;5038351;28;20245;-83
2022/06/25 07:24:05;;;;;;;0.70;0.70;;;22.80;91.00;24.30;96425.00;;;;5034492;28;20254;-83
2022/06/25 07:26:32;;;;;;;0.60;0.60;;;22.90;90.90;24.40;96427.00;;;;5048508;28;20258;-84
2022/06/25 07:28:59;;;;;;;0.70;0.70;;;23.00;90.70;24.50;96434.00;;;;5054345;28;20235;-83
2022/06/25 07:31:28;;;;;;;1.40;0.80;;;23.10;90.60;24.50;96430.00;;;;5051067;28;20260;-82
2022/06/25 07:33:56;;;;;;;0.63;0.60;;;23.20;90.50;24.60;96431.00;;;;5060944;28;20306;-82
2022/06/25 07:36:23;;;;;;;1.37;0.80;;;23.30;90.40;24.70;96423.00;;;;5061472;28;20212;-82
2022/06/25 07:38:52;;;;;;;0.80;0.60;;;23.30;90.30;24.70;96432.00;;;;5059064;28;20216;-82
2022/06/25 07:41:19;;;;;;;2.30;0.60;;;23.40;90.20;24.80;96427.00;;;;5040798;28;20267;-82
2022/06/25 07:43:46;;;;;;;0.60;0.60;;;23.50;90.00;24.80;96422.00;;;;5042958;28;20227;-82
2022/06/25 07:46:13;;;;;;;0.83;0.50;;;23.50;89.60;24.90;96420.00;;;;5042296;28;20584;-81
2022/06/25 07:48:40;;;;;;;1.03;0.90;;;23.60;89.50;24.90;96417.00;;;;5039653;28;20258;-82
2022/06/25 07:53:54;;;;;;;1.53;0.40;;;23.70;89.00;25.00;96418.00;;;;5053191;28;20271;-82
2022/06/25 07:56:22;;;;;;;0.50;0.50;;;23.70;88.40;25.00;96422.00;;;;5048764;28;20200;-82
2022/06/25 07:58:49;;;;;;;0.60;0.60;;;23.70;88.10;25.10;96421.00;;;;5047764;28;20274;-82
2022/06/25 08:01:16;;;;;;;3.30;1.00;;;23.80;88.30;25.10;96425.00;;;;5059830;28;20215;-82
2022/06/25 08:03:44;;;;;;;0.53;0.50;;;23.80;88.00;25.20;96425.00;;;;5059328;28;20209;-82
2022/06/25 08:06:13;;;;;;;0.70;0.70;;;23.90;88.20;25.30;96420.00;;;;5047324;28;20208;-81
2022/06/25 08:08:40;;;;;;;1.27;0.70;;;23.90;88.10;25.30;96417.00;;;;5055039;28;20215;-81
2022/06/25 08:11:08;;;;;;;0.93;0.70;;;24.00;87.70;25.40;96422.00;;;;5065735;28;20207;-82
2022/06/25 08:13:36;;;;;;;0.53;0.53;;;24.00;87.70;25.40;96413.00;;;;5061577;28;20216;-82
2022/06/25 08:16:05;;;;;;;0.67;0.67;;;24.10;87.40;25.50;96420.00;;;;5062200;28;20204;-82
2022/06/25 08:18:32;;;;;;;0.53;0.53;;;24.10;87.30;25.60;96417.00;;;;5048917;28;20565;-82
2022/06/25 08:21:00;;;;;;;0.97;0.70;;;24.20;87.50;25.70;96422.00;;;;5040248;28;20248;-82
2022/06/25 08:23:28;;;;;;;0.50;0.50;;;24.30;87.50;25.80;96425.00;;;;5038500;28;20217;-82
2022/06/25 08:25:55;;;;;;;0.60;0.57;;;24.30;87.70;25.80;96417.00;;;;5055413;28;20247;-82
2022/06/25 08:28:23;;;;;;;0.80;0.80;;;24.40;86.80;25.90;96418.00;;;;5055815;28;20215;-83
2022/06/25 08:30:50;;;;;;;0.60;0.60;;;24.40;86.30;26.00;96425.00;;;;5046886;28;20616;-82
2022/06/25 08:33:17;;;;;;;0.50;0.50;;;24.50;86.70;26.10;96425.00;;;;5042402;28;20217;-82
2022/06/25 08:35:45;;;;;;;0.60;0.60;;;24.60;86.10;26.10;96420.00;;;;5038988;28;20201;-82
2022/06/25 08:38:12;;;;;;;1.77;0.80;;;24.60;85.60;26.20;96422.00;;;;5041609;28;20257;-82
2022/06/25 08:40:41;;;;;;;1.00;0.60;;;24.70;85.00;26.30;96419.00;;;;5041641;28;20228;-82
2022/06/25 08:43:08;;;;;;;0.70;0.70;;;24.80;85.00;26.40;96421.00;;;;5051620;28;20274;-82
2022/06/25 08:45:35;;;;;;;0.40;0.40;;;24.90;85.10;26.50;96428.00;;;;5057844;28;20196;-82
2022/06/25 08:48:10;;;;;;;0.50;0.50;;;24.90;85.00;26.60;96430.00;;;;5046416;28;20228;-82
2022/06/25 08:50:42;;;;;;;2.83;0.60;;;25.00;83.80;26.60;96422.00;;;;5041386;28;20201;-82
2022/06/25 08:53:11;;;;;;;0.53;0.33;;;25.10;83.80;26.70;96429.00;;;;5057446;28;20220;-83
2022/06/25 08:55:40;;;;;;;1.77;0.70;;;25.20;83.90;26.80;96431.00;;;;5054617;28;20236;-82
2022/06/25 08:58:10;;;;;;;0.73;0.60;;;25.20;84.30;26.90;96428.00;;;;5049694;28;20638;-83
2022/06/25 09:00:41;;;;;;;0.63;0.40;;;25.30;82.20;26.90;96421.00;;;;5062795;28;20223;-82
2022/06/25 09:03:10;;;;;;;0.60;0.50;;;25.40;82.60;27.00;96423.00;;;;5041025;28;20214;-82
2022/06/25 09:05:40;;;;;;;1.43;0.83;;;25.40;80.80;27.00;96427.00;;;;5037597;28;20197;-82
2022/06/25 09:08:10;;;;;;;0.77;0.60;;;25.50;79.30;27.00;96430.00;;;;5059533;28;20222;-82
2022/06/25 09:10:42;;;;;;;1.13;0.47;;;25.50;78.60;27.00;96410.00;;;;5064217;28;20231;-82
2022/06/25 09:13:11;;;;;;;0.50;0.50;;;25.60;78.90;27.10;96420.00;;;;5039064;28;20240;-82
2022/06/25 09:15:41;;;;;;;0.67;0.60;;;25.60;78.20;27.10;96412.00;;;;5040481;28;20284;-81
2022/06/25 09:18:12;;;;;;;0.50;0.50;;;25.60;79.00;27.20;96412.00;;;;5065203;28;20224;-82
2022/06/25 09:20:56;;;;;;;0.63;0.63;;;25.70;78.70;27.30;96409.00;;;;5054460;28;20272;-84
2022/06/25 09:23:25;;;;;;;0.87;0.60;;;25.80;76.10;27.30;96406.00;;;;5036662;28;20311;-82
2022/06/25 09:26:05;;;;;;;0.50;0.50;;;25.80;78.70;27.50;96409.00;;;;5052797;28;20271;-82
2022/06/25 09:28:35;;;;;;;1.10;0.50;;;25.80;77.60;27.60;96410.00;;;;5058500;28;20196;-81
2022/06/25 09:31:02;;;;;;;0.50;0.50;;;25.90;79.40;27.80;96413.00;;;;5049471;28;20227;-81
2022/06/25 09:33:30;;;;;;;0.60;0.60;;;26.10;79.70;28.00;96406.00;;;;5054225;28;20217;-81
2022/06/25 09:35:58;;;;;;;1.20;0.47;;;26.10;79.50;28.10;96404.00;;;;5059867;28;20201;-81
2022/06/25 09:38:26;;;;;;;0.50;0.50;;;26.30;78.80;28.30;96409.00;;;;5055963;28;20216;-81
2022/06/25 09:40:57;;;;;;;1.13;0.47;;;26.40;78.20;28.40;96412.00;;;;5042193;28;20259;-81
2022/06/25 09:43:27;;;;;;;1.00;0.40;;;26.50;76.70;28.60;96411.00;;;;5046615;28;20212;-81
2022/06/25 09:45:56;;;;;;;0.50;0.50;;;26.60;76.90;28.70;96406.00;;;;5061597;28;20232;-81
2022/06/25 09:48:25;;;;;;;0.50;0.50;;;26.80;75.70;28.80;96413.00;;;;5046670;28;20200;-81
2022/06/25 09:51:11;;;;;;;0.45;0.45;;;26.90;75.80;29.00;96412.00;;;;5058837;28;20208;-81
2022/06/25 09:53:48;;;;;;;0.30;0.30;;;27.10;75.30;29.30;96421.00;;;;5045389;28;20592;-81
2022/06/25 09:56:18;;;;;;;0.25;0.25;;;27.20;74.20;29.50;96415.00;;;;5040538;28;20201;-81
2022/06/25 09:58:48;;;;;;;0.45;0.45;;;27.40;74.60;29.70;96414.00;;;;5057100;28;20220;-81
2022/06/25 10:01:18;;;;;;;0.95;0.30;;;27.60;74.80;29.90;96412.00;;;;5061213;28;20252;-81
2022/06/25 10:03:47;;;;;;;0.50;0.50;;;27.80;75.40;30.10;96417.00;;;;5043834;28;20612;-81
2022/06/25 10:06:16;;;;;;;0.30;0.30;;;28.00;75.40;30.30;96416.00;;;;5049422;28;20566;-81
2022/06/25 10:08:49;;;;;;;1.35;0.40;;;28.10;73.40;30.40;96416.00;;;;5049441;28;20605;-81
2022/06/25 10:11:19;;;;;;;0.30;0.30;;;28.30;70.40;30.60;96416.00;;;;5048179;28;20207;-81
2022/06/25 10:13:50;;;;;;;0.60;0.43;;;28.50;72.20;30.70;96417.00;;;;5064717;28;20277;-81
2022/06/25 10:16:18;;;;;;;0.50;0.50;;;28.70;72.00;30.70;96415.00;;;;5048627;28;20571;-81
2022/06/25 10:18:47;;;;;;;0.57;0.50;;;28.80;71.20;30.80;96422.00;;;;5064703;28;20193;-81
2022/06/25 10:21:15;;;;;;;0.30;0.30;;;29.00;71.20;30.90;96411.00;;;;5063819;28;20220;-81
2022/06/25 10:23:44;;;;;;;0.40;0.30;;;29.10;69.50;30.90;96409.00;;;;5064362;28;20241;-81
2022/06/25 10:26:13;;;;;;;0.30;0.30;;;29.20;68.70;30.90;96414.00;;;;5046252;28;20216;-81
2022/06/25 10:28:41;;;;;;;0.95;0.40;;;29.30;68.30;30.90;96406.00;;;;5044654;28;20581;-81
2022/06/25 10:31:16;;;;;;;1.38;0.45;;;29.40;68.00;30.70;96407.00;;;;5055161;28;20204;-81
2022/06/25 10:33:55;;;;;;;0.65;0.40;;;29.40;64.90;30.50;96399.00;;;;5044042;28;20221;-81
2022/06/25 10:36:42;;;;;;;0.73;0.60;;;29.30;64.00;30.30;96386.00;;;;5051508;28;20207;-81
2022/06/25 10:39:37;;;;;;;0.40;0.30;;;29.20;62.80;30.30;96383.00;;;;5048361;28;20197;-81
2022/06/25 10:45:53;;;;;;;0.63;0.47;;;29.30;63.80;30.10;96382.00;;;;5045349;28;20694;-82
2022/06/25 10:48:23;;;;;;;0.75;0.60;;;29.30;62.90;29.90;96373.00;;;;5047169;28;20206;-82
2022/06/25 10:50:53;;;;;;;0.20;0.20;;;29.20;65.50;29.90;96371.00;;;;5048737;28;20201;-82
2022/06/25 10:53:25;;;;;;;1.20;0.30;;;29.20;65.40;29.80;96373.00;;;;5065581;28;20243;-82
2022/06/25 10:56:24;;;;;;;0.40;0.40;;;29.20;65.00;29.70;96372.00;;;;5070461;28;20235;-81
2022/06/25 10:58:53;;;;;;;0.55;0.50;;;29.20;61.90;29.60;96368.00;;;;5060846;28;20268;-82
2022/06/25 11:01:28;;;;;;;0.35;0.35;;;29.10;62.30;29.40;96366.00;;;;5062524;28;20229;-82
2022/06/25 11:03:59;;;;;;;0.95;0.38;;;28.90;63.30;29.20;96364.00;;;;5045373;28;20244;-82
2022/06/25 11:06:30;;;;;;;0.50;0.50;;;28.80;63.90;29.10;96362.00;;;;5049591;28;20227;-82
2022/06/25 11:09:13;;;;;;;0.57;0.40;;;28.60;63.90;29.00;96359.00;;;;5046112;28;20244;-82
2022/06/25 11:11:42;;;;;;;0.95;0.47;;;28.40;61.00;28.90;96363.00;;;;5059043;28;20200;-82
2022/06/25 11:14:22;;;;;;;0.45;0.20;;;28.20;64.00;28.70;96357.00;;;;5061583;28;20341;-83